Aviation Digital Data Service (ADDS)

Output produced by METARs form (2229 UTC 01 February 2023)
found at http://www.aviationweather.gov/metar/data/
 
KDHN 012153Z 33010KT 10SM FEW036 22/16 A3019 RMK AO2 WSHFT 2109 SLP218 T02170161
KDHN 012049Z 0121/0218 34005KT P6SM BKN035 
     FM020500 VRB04KT P6SM BKN007 
     FM020900 VRB02KT 1/2SM FG OVC004 
     FM021500 30005KT P6SM SCT010 BKN015